• Join FlightAware (Why Join?)
  • Login
  • US Flag 
09:17PM EDT


 

Airport Tracker/Info


-or-


 

Live Flight TrackerFlight Track Log ✈ CSZ9594 ✈ 05-Jul-2013 ✈ ZGSZ / SZX - ZGNN / NNG

Flight Track Log - Related Links

Times and Time Zones

All times are in EDT time to prevent confusion due to time zone crossing. See the CSZ9594 flight status page for this flight to view local times or setup timezone preferences in your user account.

Time Position Orientation Groundspeed Altitude Reporting Facility
EDT Latitude Longitude Course Direction KTS MPH feet Rate Location/Type
07:38PM 22.6472 112.9922 271° West  Level Estimated
07:39PM 22.6479 112.8896 270° West  Level Estimated
07:40PM 22.6485 112.7871 270° West  Level Estimated
07:41PM 22.6490 112.6845 270° West  Level Estimated
07:42PM 22.6495 112.5820 270° West  Level Estimated
07:43PM 22.6499 112.4795 270° West  Level Estimated
07:44PM 22.6502 112.3769 270° West  Level Estimated
07:45PM 22.6505 112.2744 270° West  Level Estimated
07:46PM 22.6507 112.1719 270° West  Level Estimated
07:47PM 22.6509 112.0693 270° West  Level Estimated
07:48PM 22.6510 111.9668 270° West  Level Estimated
07:49PM 22.6510 111.8642 270° West  Level Estimated
07:50PM 22.6509 111.7617 270° West  Level Estimated
07:51PM 22.6508 111.6591 270° West  Level Estimated
07:52PM 22.6507 111.5566 270° West  Level Estimated
07:53PM 22.6504 111.4541 270° West  Level Estimated
07:54PM 22.6501 111.3515 270° West  Level Estimated
07:55PM 22.6497 111.2490 270° West  Level Estimated
07:56PM 22.6493 111.1464 270° West  Level Estimated
07:57PM 22.6488 111.0439 270° West  Level Estimated
07:58PM 22.6482 110.9414 270° West  Level Estimated
07:59PM 22.6476 110.8388 270° West  Level Estimated
08:00PM 22.6469 110.7363 270° West  Level Estimated
08:01PM 22.6461 110.6338 270° West  Level Estimated
08:02PM 22.6453 110.5312 270° West  Level Estimated
08:03PM 22.6444 110.4287 269° West  Level Estimated
08:04PM 22.6435 110.3262 269° West  Level Estimated
08:05PM 22.6424 110.2236 269° West  Level Estimated
08:06PM 22.6413 110.1211 269° West  Level Estimated
08:07PM 22.6402 110.0186 269° West  Level Estimated
08:08PM 22.6390 109.9161 269° West  Level Estimated
08:09PM 22.6377 109.8135 269° West  Level Estimated
08:10PM 22.6364 109.7110 269° West  Level Estimated
08:11PM 22.6349 109.6085 269° West  Level Estimated
08:12PM 22.6335 109.5060 269° West  Level Estimated
08:13PM 22.6319 109.4035 269° West  Level Estimated
08:14PM 22.6303 109.3010 269° West  Level Estimated
08:15PM 22.6286 109.1984 269° West  Level Estimated
08:16PM 22.6269 109.0959 269° West  Level Estimated
08:17PM 22.6251 108.9934 269° West  Level Estimated
08:18PM 22.6232 108.8909 269° West  Level Estimated
08:19PM 22.6213 108.7884 269° West  Level Estimated
08:20PM 22.6193 108.6859 269° West  Level Estimated
08:21PM 22.6172 108.5835 269° West  Level Estimated
08:22PM 22.6151 108.4810 269° West  Level Estimated
08:23PM 22.6129 108.3785 269° West  Level Estimated
08:24PM 22.6106 108.2760 269° West  Level Estimated
08:25PM 22.6083 108.1735 269° West  Level Estimated
08:26PM 22.6083 108.1724 269° West  Level Estimated
08:27PM 22.6083 108.1724 148° Southeast  Level Estimated
08:28PM 22.6083 108.1724 148° Southeast  Level Estimated
08:29PM 22.6083 108.1724 148° Southeast  Level Estimated
08:30PM 22.6083 108.1724 148° Southeast  Level Estimated
08:31PM 22.6083 108.1724 148° Southeast  Level Estimated
08:32PM 22.6083 108.1724 148° Southeast  Level Estimated
08:33PM 22.6083 108.1724 148° Southeast  Level Estimated
08:34PM 22.6083 108.1724 148° Southeast  Level Estimated
08:35PM 22.6083 108.1724 148° Southeast  Level Estimated
08:36PM 22.6083 108.1724 148° Southeast  Level Estimated
08:37PM 22.6083 108.1724 148° Southeast  Level Estimated
08:38PM 22.6083 108.1724 148° Southeast  Level Estimated
08:39PM 22.6083 108.1724 148° Southeast  Level Estimated
08:40PM 22.6083 108.1724 148° Southeast  Level Estimated
08:41PM 22.6083 108.1724 148° Southeast  Level Estimated